Terminal Aerodrome Forecast
Issued by NWS

Home | Current Version | Previous Version | Text Only | Print | Product List | Glossary On
Versions: 1 2 3 4 5 6 7 8 9 10 11 12 13 14 15 16 17 18 19
000
FTUS44 KTSA 030500
TAFBVO
TAF
KBVO 030525Z 0306/0406 17008KT 5SM BR OVC005
      TEMPO 0308/0312 1SM BR OVC003
     FM031200 19013KT 5SM BR OVC006
     FM031600 21013KT P6SM OVC015 PROB30 0318/0324 4SM -RA BR OVC007
     FM040000 35008G16KT P6SM SCT015 OVC050 PROB30 0400/0406 4SM -RA
      BR OVC015=

USA.gov is the U.S. government's official web portal to all federal, state and local government web resources and services.